Wayana — PE5639 — position and weather

sailwx.info

Track history (hours):
 
Tides and Currents Weather Stations Pressure Air Temp Water Temp Dewpoint Dewpoint Depression Visibility Wind Speed Wind Dir Waves Ship Positions

Wayana

Last reported at 2016-Dec-22 16:27 UTC. Time now 2017-Jan-16 17:22 UTC.
Position N 52°55' E 005°03'.
Warning: this ship's position is 25 days out of date.

Length 14 m.

Type: Sailing vessel. MMSI: 244020670.

Date/timePositionNaut miles runAvg speedWind from/ knotsBaromVisibWave heightAir tempDewpointWater temp
2016-Dec-22 16:27N 52°55' E 005°03'0 0.0
2016-Dec-22 15:33N 52°55' E 005°03'0 0.0
2016-Dec-22 14:33N 52°55' E 005°03'2 2.5
2016-Dec-22 13:33N 52°56' E 005°07'6 5.9
2016-Dec-22 12:33N 53°00' E 005°14'5 5.2
2016-Dec-22 11:31N 53°04' E 005°20'4 3.7
2016-Dec-22 10:33N 53°08' E 005°22'4 4.3
2016-Dec-22 09:33N 53°11' E 005°20'5 5.4
2016-Dec-22 08:33N 53°14' E 005°12'  
2016-Dec-19 12:12N 53°18' E 005°15'4 6.5
2016-Dec-19 11:33N 53°15' E 005°10'5 5.0
2016-Dec-19 10:33N 53°10' E 005°11'6 5.9
2016-Dec-19 09:33N 53°05' E 005°07'6 6.0
2016-Dec-19 08:33N 52°59' E 005°05'4 3.6
2016-Dec-19 07:31N 52°55' E 005°03'  
2016-Dec-15 11:32N 52°55' E 005°03'  
Track history (hours):
 
Tides and Currents Weather Stations Pressure Air Temp Water Temp Dewpoint Dewpoint Depression Visibility Wind Speed Wind Dir Waves Ship Positions

Wayana

Last reported at 2016-Dec-22 16:27 UTC. Time now 2017-Jan-16 17:22 UTC.
Position N 52°55' E 005°03'.
Warning: this ship's position is 25 days out of date.

Length 14 m.

Type: Sailing vessel. MMSI: 244020670.

Date/timePositionNaut miles runAvg speedWind from/ knotsBaromVisibWave heightAir tempDewpointWater temp
2016-Dec-22 16:27N 52°55' E 005°03'0 0.0
2016-Dec-22 15:33N 52°55' E 005°03'0 0.0
2016-Dec-22 14:33N 52°55' E 005°03'2 2.5
2016-Dec-22 13:33N 52°56' E 005°07'6 5.9
2016-Dec-22 12:33N 53°00' E 005°14'5 5.2
2016-Dec-22 11:31N 53°04' E 005°20'4 3.7
2016-Dec-22 10:33N 53°08' E 005°22'4 4.3
2016-Dec-22 09:33N 53°11' E 005°20'5 5.4
2016-Dec-22 08:33N 53°14' E 005°12'  
2016-Dec-19 12:12N 53°18' E 005°15'4 6.5
2016-Dec-19 11:33N 53°15' E 005°10'5 5.0
2016-Dec-19 10:33N 53°10' E 005°11'6 5.9
2016-Dec-19 09:33N 53°05' E 005°07'6 6.0
2016-Dec-19 08:33N 52°59' E 005°05'4 3.6
2016-Dec-19 07:31N 52°55' E 005°03'  
2016-Dec-15 11:32N 52°55' E 005°03'  

Dump ship's entire track history